sensor_id;sensor_type;location;lat;lon;timestamp;pressure;altitude;pressure_sealevel;temperature;humidity
72395;BME280;60384;48.152;11.614;2023-04-02T00:01:24;94893.47;;;9.09;61.32
72395;BME280;60384;48.152;11.614;2023-04-02T00:04:28;94891.91;;;9.08;61.24
72395;BME280;60384;48.152;11.614;2023-04-02T00:07:37;94896.75;;;9.06;61.18
72395;BME280;60384;48.152;11.614;2023-04-02T00:10:45;94890.69;;;9.05;61.05
72395;BME280;60384;48.152;11.614;2023-04-02T00:13:47;94898.53;;;9.02;60.87
72395;BME280;60384;48.152;11.614;2023-04-02T00:16:49;94890.84;;;9.00;60.98
72395;BME280;60384;48.152;11.614;2023-04-02T00:19:55;94899.19;;;8.99;61.21
72395;BME280;60384;48.152;11.614;2023-04-02T00:22:57;94893.41;;;8.97;60.88
72395;BME280;60384;48.152;11.614;2023-04-02T00:25:58;94894.19;;;8.97;61.23
72395;BME280;60384;48.152;11.614;2023-04-02T00:29:02;94903.59;;;8.95;61.27
72395;BME280;60384;48.152;11.614;2023-04-02T00:32:04;94900.13;;;8.94;61.54
72395;BME280;60384;48.152;11.614;2023-04-02T00:35:10;94908.13;;;8.94;61.24
72395;BME280;60384;48.152;11.614;2023-04-02T00:38:17;94913.00;;;8.92;61.45
72395;BME280;60384;48.152;11.614;2023-04-02T00:41:21;94911.75;;;8.90;60.96
72395;BME280;60384;48.152;11.614;2023-04-02T00:44:26;94914.00;;;8.88;61.45
72395;BME280;60384;48.152;11.614;2023-04-02T00:47:30;94927.63;;;8.86;61.27
72395;BME280;60384;48.152;11.614;2023-04-02T00:50:34;94910.41;;;8.84;61.19
72395;BME280;60384;48.152;11.614;2023-04-02T00:53:39;94912.63;;;8.82;61.59
72395;BME280;60384;48.152;11.614;2023-04-02T00:56:42;94907.28;;;8.82;61.11
72395;BME280;60384;48.152;11.614;2023-04-02T00:59:49;94907.59;;;8.80;61.63
72395;BME280;60384;48.152;11.614;2023-04-02T01:06:14;94902.28;;;8.80;61.49
72395;BME280;60384;48.152;11.614;2023-04-02T01:09:20;94918.25;;;8.80;61.58
72395;BME280;60384;48.152;11.614;2023-04-02T01:12:29;94914.03;;;8.79;61.31
72395;BME280;60384;48.152;11.614;2023-04-02T01:15:34;94919.34;;;8.79;61.68
72395;BME280;60384;48.152;11.614;2023-04-02T01:18:41;94918.56;;;8.79;61.27
72395;BME280;60384;48.152;11.614;2023-04-02T01:21:50;94924.69;;;8.79;61.35
72395;BME280;60384;48.152;11.614;2023-04-02T01:24:57;94904.47;;;8.78;61.02
72395;BME280;60384;48.152;11.614;2023-04-02T01:28:00;94922.34;;;8.78;60.98
72395;BME280;60384;48.152;11.614;2023-04-02T01:31:06;94927.66;;;8.78;61.52
72395;BME280;60384;48.152;11.614;2023-04-02T01:34:09;94926.56;;;8.79;61.13
72395;BME280;60384;48.152;11.614;2023-04-02T01:40:33;94928.44;;;8.78;60.92
72395;BME280;60384;48.152;11.614;2023-04-02T01:43:37;94930.31;;;8.78;61.04
72395;BME280;60384;48.152;11.614;2023-04-02T01:46:46;94933.00;;;8.78;61.46
72395;BME280;60384;48.152;11.614;2023-04-02T01:49:48;94931.88;;;8.79;61.24
72395;BME280;60384;48.152;11.614;2023-04-02T01:52:50;94928.44;;;8.78;61.62
72395;BME280;60384;48.152;11.614;2023-04-02T01:55:55;94931.88;;;8.79;61.10
72395;BME280;60384;48.152;11.614;2023-04-02T01:58:56;94939.88;;;8.79;61.46
72395;BME280;60384;48.152;11.614;2023-04-02T02:02:03;94940.19;;;8.77;61.66
72395;BME280;60384;48.152;11.614;2023-04-02T02:05:10;94950.84;;;8.77;61.38
72395;BME280;60384;48.152;11.614;2023-04-02T02:08:20;94945.09;;;8.75;61.26
72395;BME280;60384;48.152;11.614;2023-04-02T02:11:25;94949.63;;;8.75;61.10
72395;BME280;60384;48.152;11.614;2023-04-02T02:14:28;94953.06;;;8.75;61.45
72395;BME280;60384;48.152;11.614;2023-04-02T02:17:31;94957.59;;;8.75;61.48
72395;BME280;60384;48.152;11.614;2023-04-02T02:20:33;94962.16;;;8.74;61.40
72395;BME280;60384;48.152;11.614;2023-04-02T02:23:36;94961.38;;;8.74;61.32
72395;BME280;60384;48.152;11.614;2023-04-02T02:26:37;94957.59;;;8.75;61.47
72395;BME280;60384;48.152;11.614;2023-04-02T02:29:41;94960.59;;;8.73;61.63
72395;BME280;60384;48.152;11.614;2023-04-02T02:32:48;94965.47;;;8.71;61.58
72395;BME280;60384;48.152;11.614;2023-04-02T02:35:52;94970.78;;;8.71;61.33
72395;BME280;60384;48.152;11.614;2023-04-02T02:38:56;94967.34;;;8.70;61.51
72395;BME280;60384;48.152;11.614;2023-04-02T02:42:17;94973.78;;;8.69;61.41
72395;BME280;60384;48.152;11.614;2023-04-02T02:45:20;94971.44;;;8.68;61.20
72395;BME280;60384;48.152;11.614;2023-04-02T02:48:30;94982.06;;;8.68;61.27
72395;BME280;60384;48.152;11.614;2023-04-02T02:51:39;94982.84;;;8.68;61.13
72395;BME280;60384;48.152;11.614;2023-04-02T02:54:45;94988.19;;;8.68;61.54
72395;BME280;60384;48.152;11.614;2023-04-02T02:57:50;94995.69;;;8.66;61.20
72395;BME280;60384;48.152;11.614;2023-04-02T03:00:54;94990.38;;;8.66;61.44
72395;BME280;60384;48.152;11.614;2023-04-02T03:03:58;94995.69;;;8.66;61.81
72395;BME280;60384;48.152;11.614;2023-04-02T03:07:00;94989.28;;;8.67;61.62
72395;BME280;60384;48.152;11.614;2023-04-02T03:10:05;94989.28;;;8.67;61.90
72395;BME280;60384;48.152;11.614;2023-04-02T03:13:15;94991.94;;;8.67;61.27
72395;BME280;60384;48.152;11.614;2023-04-02T03:16:22;94994.47;;;8.64;61.69
72395;BME280;60384;48.152;11.614;2023-04-02T03:19:30;94998.22;;;8.63;61.70
72395;BME280;60384;48.152;11.614;2023-04-02T03:22:36;94998.22;;;8.63;61.07
72395;BME280;60384;48.152;11.614;2023-04-02T03:25:40;94992.44;;;8.61;61.13
72395;BME280;60384;48.152;11.614;2023-04-02T03:28:45;95004.97;;;8.60;61.44
72395;BME280;60384;48.152;11.614;2023-04-02T03:31:49;95011.06;;;8.61;61.08
72395;BME280;60384;48.152;11.614;2023-04-02T03:34:56;95011.41;;;8.59;61.44
72395;BME280;60384;48.152;11.614;2023-04-02T03:38:01;95012.19;;;8.60;61.75
72395;BME280;60384;48.152;11.614;2023-04-02T03:41:05;95008.75;;;8.59;61.44
72395;BME280;60384;48.152;11.614;2023-04-02T03:44:14;95009.06;;;8.58;61.16
72395;BME280;60384;48.152;11.614;2023-04-02T03:47:19;95010.94;;;8.57;61.46
72395;BME280;60384;48.152;11.614;2023-04-02T03:50:27;95021.91;;;8.56;61.35
72395;BME280;60384;48.152;11.614;2023-04-02T03:53:33;95028.00;;;8.56;61.13
72395;BME280;60384;48.152;11.614;2023-04-02T03:56:36;95019.53;;;8.54;61.32
72395;BME280;60384;48.152;11.614;2023-04-02T03:59:46;95027.53;;;8.54;61.78
72395;BME280;60384;48.152;11.614;2023-04-02T04:02:50;95036.63;;;8.53;61.08
72395;BME280;60384;48.152;11.614;2023-04-02T04:05:56;95033.50;;;8.51;61.32
72395;BME280;60384;48.152;11.614;2023-04-02T04:09:00;95041.00;;;8.49;61.66
72395;BME280;60384;48.152;11.614;2023-04-02T04:12:08;95038.69;;;8.48;61.82
72395;BME280;60384;48.152;11.614;2023-04-02T04:15:15;95040.56;;;8.47;61.14
72395;BME280;60384;48.152;11.614;2023-04-02T04:18:20;95039.00;;;8.46;61.38
72395;BME280;60384;48.152;11.614;2023-04-02T04:21:26;95041.66;;;8.46;61.59
72395;BME280;60384;48.152;11.614;2023-04-02T04:25:04;95052.63;;;8.45;61.52
72395;BME280;60384;48.152;11.614;2023-04-02T04:28:09;95046.50;;;8.44;61.73
72395;BME280;60384;48.152;11.614;2023-04-02T04:31:18;95053.72;;;8.44;61.90
72395;BME280;60384;48.152;11.614;2023-04-02T04:34:26;95054.84;;;8.43;61.38
72395;BME280;60384;48.152;11.614;2023-04-02T04:37:33;95061.25;;;8.42;61.63
72395;BME280;60384;48.152;11.614;2023-04-02T04:40:41;95072.69;;;8.42;61.24
72395;BME280;60384;48.152;11.614;2023-04-02T04:43:45;95082.53;;;8.42;61.25
72395;BME280;60384;48.152;11.614;2023-04-02T04:46:51;95074.88;;;8.40;61.74
72395;BME280;60384;48.152;11.614;2023-04-02T04:49:57;95084.72;;;8.40;61.28
72395;BME280;60384;48.152;11.614;2023-04-02T04:53:06;95090.84;;;8.40;61.74
72395;BME280;60384;48.152;11.614;2023-04-02T04:56:08;95087.69;;;8.38;61.37
72395;BME280;60384;48.152;11.614;2023-04-02T04:59:14;95091.94;;;8.39;61.46
72395;BME280;60384;48.152;11.614;2023-04-02T05:02:18;95093.81;;;8.39;61.37
72395;BME280;60384;48.152;11.614;2023-04-02T05:05:25;95102.88;;;8.38;61.95
72395;BME280;60384;48.152;11.614;2023-04-02T05:08:31;95106.97;;;8.35;61.53
72395;BME280;60384;48.152;11.614;2023-04-02T05:11:37;95109.63;;;8.35;61.93
72395;BME280;60384;48.152;11.614;2023-04-02T05:14:41;95118.41;;;8.36;61.72
72395;BME280;60384;48.152;11.614;2023-04-02T05:17:45;95122.16;;;8.35;61.18
72395;BME280;60384;48.152;11.614;2023-04-02T05:20:53;95116.03;;;8.34;61.77
72395;BME280;60384;48.152;11.614;2023-04-02T05:24:12;95117.13;;;8.33;61.87
72395;BME280;60384;48.152;11.614;2023-04-02T05:27:20;95128.56;;;8.34;61.72
72395;BME280;60384;48.152;11.614;2023-04-02T05:30:39;95128.56;;;8.34;61.69
72395;BME280;60384;48.152;11.614;2023-04-02T05:33:47;95136.25;;;8.35;61.36
72395;BME280;60384;48.152;11.614;2023-04-02T05:36:50;95140.47;;;8.36;61.51
72395;BME280;60384;48.152;11.614;2023-04-02T05:39:54;95135.16;;;8.36;61.74
72395;BME280;60384;48.152;11.614;2023-04-02T05:42:56;95142.81;;;8.38;61.84
72395;BME280;60384;48.152;11.614;2023-04-02T05:46:02;95149.25;;;8.37;61.93
72395;BME280;60384;48.152;11.614;2023-04-02T05:49:08;95151.41;;;8.35;61.55
72395;BME280;60384;48.152;11.614;2023-04-02T05:52:15;95158.75;;;8.38;61.76
72395;BME280;60384;48.152;11.614;2023-04-02T05:55:28;95159.72;;;8.42;61.31
72395;BME280;60384;48.152;11.614;2023-04-02T05:58:33;95153.75;;;8.45;61.25
72395;BME280;60384;48.152;11.614;2023-04-02T06:01:50;95157.69;;;8.47;60.80
72395;BME280;60384;48.152;11.614;2023-04-02T06:05:01;95163.78;;;8.48;61.32
72395;BME280;60384;48.152;11.614;2023-04-02T06:08:10;95159.56;;;8.47;61.33
72395;BME280;60384;48.152;11.614;2023-04-02T06:11:15;95163.78;;;8.48;61.05
72395;BME280;60384;48.152;11.614;2023-04-02T06:14:19;95166.13;;;8.49;61.50
72395;BME280;60384;48.152;11.614;2023-04-02T06:17:22;95169.56;;;8.50;60.92
72395;BME280;60384;48.152;11.614;2023-04-02T06:20:23;95184.44;;;8.51;61.40
72395;BME280;60384;48.152;11.614;2023-04-02T06:23:26;95170.81;;;8.52;61.28
72395;BME280;60384;48.152;11.614;2023-04-02T06:26:37;95183.03;;;8.53;61.29
72395;BME280;60384;48.152;11.614;2023-04-02T06:29:41;95186.63;;;8.57;60.89
72395;BME280;60384;48.152;11.614;2023-04-02T06:32:49;95178.34;;;8.59;60.61
72395;BME280;60384;48.152;11.614;2023-04-02T06:35:52;95186.94;;;8.64;61.19
72395;BME280;60384;48.152;11.614;2023-04-02T06:39:03;95193.84;;;8.65;60.97
72395;BME280;60384;48.152;11.614;2023-04-02T06:42:09;95191.16;;;8.65;60.84
72395;BME280;60384;48.152;11.614;2023-04-02T06:45:33;95200.41;;;8.68;61.21
72395;BME280;60384;48.152;11.614;2023-04-02T06:49:04;95206.03;;;8.66;61.14
72395;BME280;60384;48.152;11.614;2023-04-02T06:52:11;95219.50;;;8.70;60.64
72395;BME280;60384;48.152;11.614;2023-04-02T06:55:20;95219.66;;;8.74;60.91
72395;BME280;60384;48.152;11.614;2023-04-02T06:58:28;95225.13;;;8.77;60.90
72395;BME280;60384;48.152;11.614;2023-04-02T07:01:31;95231.41;;;8.81;60.91
72395;BME280;60384;48.152;11.614;2023-04-02T07:04:34;95237.19;;;8.83;60.70
72395;BME280;60384;48.152;11.614;2023-04-02T07:07:36;95235.47;;;8.87;61.13
72395;BME280;60384;48.152;11.614;2023-04-02T07:10:41;95240.31;;;8.94;60.72
72395;BME280;60384;48.152;11.614;2023-04-02T07:13:45;95235.59;;;8.99;60.70
72395;BME280;60384;48.152;11.614;2023-04-02T07:16:47;95242.34;;;9.05;60.54
72395;BME280;60384;48.152;11.614;2023-04-02T07:19:49;95243.41;;;9.13;60.59
72395;BME280;60384;48.152;11.614;2023-04-02T07:22:53;95251.69;;;9.20;60.68
72395;BME280;60384;48.152;11.614;2023-04-02T07:25:55;95253.72;;;9.23;60.23
72395;BME280;60384;48.152;11.614;2023-04-02T07:28:59;95254.00;;;9.30;60.45
72395;BME280;60384;48.152;11.614;2023-04-02T07:32:00;95254.44;;;9.41;60.09
72395;BME280;60384;48.152;11.614;2023-04-02T07:35:02;95262.25;;;9.46;60.23
72395;BME280;60384;48.152;11.614;2023-04-02T07:38:04;95258.03;;;9.53;60.04
72395;BME280;60384;48.152;11.614;2023-04-02T07:41:05;95251.53;;;9.63;59.98
72395;BME280;60384;48.152;11.614;2023-04-02T07:44:10;95252.75;;;9.74;59.29
72395;BME280;60384;48.152;11.614;2023-04-02T07:47:11;95262.59;;;9.82;59.80
72395;BME280;60384;48.152;11.614;2023-04-02T07:50:13;95270.13;;;9.89;59.88
72395;BME280;60384;48.152;11.614;2023-04-02T07:53:24;95268.81;;;9.95;59.76
72395;BME280;60384;48.152;11.614;2023-04-02T07:56:29;95272.72;;;9.98;59.89
72395;BME280;60384;48.152;11.614;2023-04-02T07:59:32;95280.41;;;9.99;59.88
72395;BME280;60384;48.152;11.614;2023-04-02T08:02:33;95288.09;;;10.01;59.84
72395;BME280;60384;48.152;11.614;2023-04-02T08:05:35;95279.44;;;10.04;59.39
72395;BME280;60384;48.152;11.614;2023-04-02T08:08:37;95283.50;;;10.10;60.04
72395;BME280;60384;48.152;11.614;2023-04-02T08:11:39;95282.72;;;10.18;59.88
72395;BME280;60384;48.152;11.614;2023-04-02T08:14:42;95284.72;;;10.21;60.03
72395;BME280;60384;48.152;11.614;2023-04-02T08:17:44;95298.22;;;10.24;59.40
72395;BME280;60384;48.152;11.614;2023-04-02T08:20:47;95300.81;;;10.33;59.42
72395;BME280;60384;48.152;11.614;2023-04-02T08:23:48;95303.47;;;10.42;59.31
72395;BME280;60384;48.152;11.614;2023-04-02T08:26:50;95304.94;;;10.51;60.00
72395;BME280;60384;48.152;11.614;2023-04-02T08:29:54;95313.25;;;10.58;59.26
72395;BME280;60384;48.152;11.614;2023-04-02T08:32:55;95311.66;;;10.57;60.05
72395;BME280;60384;48.152;11.614;2023-04-02T08:35:57;95310.69;;;10.62;59.41
72395;BME280;60384;48.152;11.614;2023-04-02T08:38:59;95315.06;;;10.66;59.28
72395;BME280;60384;48.152;11.614;2023-04-02T08:42:02;95307.50;;;10.68;59.40
72395;BME280;60384;48.152;11.614;2023-04-02T08:45:09;95319.41;;;10.71;59.36
72395;BME280;60384;48.152;11.614;2023-04-02T08:48:20;95320.66;;;10.73;59.33
72395;BME280;60384;48.152;11.614;2023-04-02T08:51:23;95328.16;;;10.80;59.64
72395;BME280;60384;48.152;11.614;2023-04-02T08:54:26;95322.63;;;10.85;58.98
72395;BME280;60384;48.152;11.614;2023-04-02T08:57:31;95324.56;;;10.97;59.21
72395;BME280;60384;48.152;11.614;2023-04-02T09:00:38;95331.78;;;11.17;58.24
72395;BME280;60384;48.152;11.614;2023-04-02T09:03:40;95328.75;;;11.39;58.26
72395;BME280;60384;48.152;11.614;2023-04-02T09:06:43;95333.34;;;11.51;58.63
72395;BME280;60384;48.152;11.614;2023-04-02T09:09:46;95329.72;;;11.55;58.35
72395;BME280;60384;48.152;11.614;2023-04-02T09:12:50;95335.28;;;11.63;58.08
72395;BME280;60384;48.152;11.614;2023-04-02T09:15:54;95339.13;;;11.74;58.54
72395;BME280;60384;48.152;11.614;2023-04-02T09:18:56;95342.75;;;11.90;58.02
72395;BME280;60384;48.152;11.614;2023-04-02T09:22:01;95340.97;;;11.94;58.58
72395;BME280;60384;48.152;11.614;2023-04-02T09:25:10;95343.44;;;12.23;58.24
72395;BME280;60384;48.152;11.614;2023-04-02T09:28:14;95346.78;;;12.20;57.38
72395;BME280;60384;48.152;11.614;2023-04-02T09:31:17;95356.16;;;12.26;57.64
72395;BME280;60384;48.152;11.614;2023-04-02T09:34:28;95359.50;;;12.60;57.18
72395;BME280;60384;48.152;11.614;2023-04-02T09:37:30;95359.94;;;12.62;57.48
72395;BME280;60384;48.152;11.614;2023-04-02T09:40:32;95370.44;;;12.79;56.95
72395;BME280;60384;48.152;11.614;2023-04-02T09:43:36;95363.41;;;12.74;56.95
72395;BME280;60384;48.152;11.614;2023-04-02T09:46:47;95368.00;;;12.62;57.48
72395;BME280;60384;48.152;11.614;2023-04-02T09:49:49;95366.88;;;12.75;57.38
72395;BME280;60384;48.152;11.614;2023-04-02T09:52:53;95367.66;;;12.63;57.64
72395;BME280;60384;48.152;11.614;2023-04-02T09:56:08;95372.00;;;12.80;57.42
72395;BME280;60384;48.152;11.614;2023-04-02T09:59:13;95372.09;;;12.83;57.17
72395;BME280;60384;48.152;11.614;2023-04-02T10:02:23;95376.81;;;12.38;58.42
72395;BME280;60384;48.152;11.614;2023-04-02T10:05:28;95371.09;;;12.15;58.82
72395;BME280;60384;48.152;11.614;2023-04-02T10:08:31;95377.91;;;12.13;58.62
72395;BME280;60384;48.152;11.614;2023-04-02T10:11:33;95386.72;;;12.13;58.76
72395;BME280;60384;48.152;11.614;2023-04-02T10:14:36;95382.13;;;12.14;58.83
72395;BME280;60384;48.152;11.614;2023-04-02T10:17:40;95384.41;;;12.24;59.36
72395;BME280;60384;48.152;11.614;2023-04-02T10:20:42;95382.03;;;12.71;58.05
72395;BME280;60384;48.152;11.614;2023-04-02T10:23:46;95368.06;;;13.70;55.90
72395;BME280;60384;48.152;11.614;2023-04-02T10:26:50;95375.56;;;13.64;55.99
72395;BME280;60384;48.152;11.614;2023-04-02T10:30:07;95373.06;;;13.55;56.77
72395;BME280;60384;48.152;11.614;2023-04-02T10:33:12;95368.78;;;13.82;56.66
72395;BME280;60384;48.152;11.614;2023-04-02T10:36:21;95380.06;;;14.19;55.76
72395;BME280;60384;48.152;11.614;2023-04-02T10:39:31;95374.53;;;14.75;54.75
72395;BME280;60384;48.152;11.614;2023-04-02T10:42:36;95373.47;;;15.34;54.26
72395;BME280;60384;48.152;11.614;2023-04-02T10:45:41;95372.78;;;15.37;54.44
72395;BME280;60384;48.152;11.614;2023-04-02T10:48:47;95372.88;;;15.59;53.58
72395;BME280;60384;48.152;11.614;2023-04-02T10:51:53;95385.03;;;15.15;54.63
72395;BME280;60384;48.152;11.614;2023-04-02T10:54:56;95387.72;;;14.80;56.13
72395;BME280;60384;48.152;11.614;2023-04-02T10:58:02;95392.47;;;14.24;56.90
72395;BME280;60384;48.152;11.614;2023-04-02T11:01:08;95400.41;;;13.89;57.63
72395;BME280;60384;48.152;11.614;2023-04-02T11:04:16;95400.53;;;13.80;57.48
72395;BME280;60384;48.152;11.614;2023-04-02T11:07:20;95397.88;;;13.96;57.40
72395;BME280;60384;48.152;11.614;2023-04-02T11:10:23;95405.53;;;14.10;57.14
72395;BME280;60384;48.152;11.614;2023-04-02T11:13:27;95400.44;;;14.20;56.67
72395;BME280;60384;48.152;11.614;2023-04-02T11:16:31;95399.03;;;13.95;57.42
72395;BME280;60384;48.152;11.614;2023-04-02T11:19:35;95402.66;;;13.59;57.91
72395;BME280;60384;48.152;11.614;2023-04-02T11:22:37;95409.56;;;13.32;58.54
72395;BME280;60384;48.152;11.614;2023-04-02T11:25:38;95416.09;;;13.19;58.78
72395;BME280;60384;48.152;11.614;2023-04-02T11:28:41;95414.09;;;13.04;58.89
72395;BME280;60384;48.152;11.614;2023-04-02T11:31:43;95420.78;;;12.98;59.29
72395;BME280;60384;48.152;11.614;2023-04-02T11:44:48;95434.06;;;13.18;58.61
72395;BME280;60384;48.152;11.614;2023-04-02T11:51:09;95420.22;;;15.45;54.63
72395;BME280;60384;48.152;11.614;2023-04-02T11:54:20;95429.97;;;15.14;55.30
72395;BME280;60384;48.152;11.614;2023-04-02T11:57:27;95430.56;;;14.57;56.78
72395;BME280;60384;48.152;11.614;2023-04-02T12:00:49;95429.72;;;14.10;57.44
72395;BME280;60384;48.152;11.614;2023-04-02T12:07:26;95438.09;;;13.92;57.49
72395;BME280;60384;48.152;11.614;2023-04-02T12:10:48;95426.91;;;13.90;57.66
72395;BME280;60384;48.152;11.614;2023-04-02T12:13:51;95436.31;;;13.84;57.75
72395;BME280;60384;48.152;11.614;2023-04-02T12:16:55;95431.44;;;13.74;57.92
72395;BME280;60384;48.152;11.614;2023-04-02T12:19:57;95447.50;;;13.58;58.57
72395;BME280;60384;48.152;11.614;2023-04-02T12:23:00;95446.41;;;13.47;58.82
72395;BME280;60384;48.152;11.614;2023-04-02T12:26:03;95449.00;;;13.44;58.92
72395;BME280;60384;48.152;11.614;2023-04-02T12:29:15;95459.19;;;13.38;58.75
72395;BME280;60384;48.152;11.614;2023-04-02T12:32:24;95460.56;;;13.32;58.63
72395;BME280;60384;48.152;11.614;2023-04-02T12:35:27;95455.59;;;13.34;58.73
72395;BME280;60384;48.152;11.614;2023-04-02T12:38:31;95459.50;;;13.49;58.55
72395;BME280;60384;48.152;11.614;2023-04-02T12:41:35;95459.53;;;13.77;57.55
72395;BME280;60384;48.152;11.614;2023-04-02T12:44:37;95456.97;;;13.96;57.59
72395;BME280;60384;48.152;11.614;2023-04-02T12:47:50;95470.25;;;13.77;58.02
72395;BME280;60384;48.152;11.614;2023-04-02T12:50:52;95474.69;;;13.45;58.40
72395;BME280;60384;48.152;11.614;2023-04-02T12:53:54;95475.31;;;13.14;58.86
72395;BME280;60384;48.152;11.614;2023-04-02T13:00:32;95498.28;;;12.66;59.65
72395;BME280;60384;48.152;11.614;2023-04-02T13:03:36;95494.13;;;12.45;60.33
72395;BME280;60384;48.152;11.614;2023-04-02T13:06:38;95490.53;;;12.28;59.95
72395;BME280;60384;48.152;11.614;2023-04-02T13:09:43;95493.97;;;12.17;59.74
72395;BME280;60384;48.152;11.614;2023-04-02T13:12:45;95497.50;;;12.09;60.28
72395;BME280;60384;48.152;11.614;2023-04-02T13:15:58;95498.47;;;12.04;60.22
72395;BME280;60384;48.152;11.614;2023-04-02T13:19:16;95490.88;;;11.94;60.50
72395;BME280;60384;48.152;11.614;2023-04-02T13:22:28;95492.69;;;11.81;59.84
72395;BME280;60384;48.152;11.614;2023-04-02T13:25:30;95495.44;;;11.73;59.74
72395;BME280;60384;48.152;11.614;2023-04-02T13:28:32;95495.81;;;11.63;60.11
72395;BME280;60384;48.152;11.614;2023-04-02T13:31:34;95504.03;;;11.57;59.69
72395;BME280;60384;48.152;11.614;2023-04-02T13:34:37;95507.22;;;11.51;60.41
72395;BME280;60384;48.152;11.614;2023-04-02T13:37:38;95505.09;;;11.44;60.10
72395;BME280;60384;48.152;11.614;2023-04-02T13:40:40;95507.31;;;11.42;61.20
72395;BME280;60384;48.152;11.614;2023-04-02T13:43:42;95503.66;;;11.47;60.57
72395;BME280;60384;48.152;11.614;2023-04-02T13:46:44;95503.78;;;11.50;60.29
72395;BME280;60384;48.152;11.614;2023-04-02T13:49:47;95505.34;;;11.51;60.23
72395;BME280;60384;48.152;11.614;2023-04-02T13:52:49;95507.56;;;11.49;59.49
72395;BME280;60384;48.152;11.614;2023-04-02T13:55:51;95502.53;;;11.48;60.28
72395;BME280;60384;48.152;11.614;2023-04-02T13:58:53;95504.22;;;11.52;59.65
72395;BME280;60384;48.152;11.614;2023-04-02T14:01:55;95497.31;;;11.51;59.43
72395;BME280;60384;48.152;11.614;2023-04-02T14:05:02;95496.88;;;11.49;59.98
72395;BME280;60384;48.152;11.614;2023-04-02T14:08:10;95511.53;;;11.43;60.20
72395;BME280;60384;48.152;11.614;2023-04-02T14:11:20;95517.53;;;11.40;60.18
72395;BME280;60384;48.152;11.614;2023-04-02T14:14:31;95519.81;;;11.30;60.45
72395;BME280;60384;48.152;11.614;2023-04-02T14:17:40;95536.22;;;11.19;60.12
72395;BME280;60384;48.152;11.614;2023-04-02T14:20:49;95536.91;;;11.08;60.62
72395;BME280;60384;48.152;11.614;2023-04-02T14:24:00;95536.94;;;10.99;60.68
72395;BME280;60384;48.152;11.614;2023-04-02T14:27:08;95529.44;;;10.93;60.68
72395;BME280;60384;48.152;11.614;2023-04-02T14:30:16;95551.00;;;10.88;60.83
72395;BME280;60384;48.152;11.614;2023-04-02T14:33:25;95550.53;;;10.86;60.12
72395;BME280;60384;48.152;11.614;2023-04-02T14:36:34;95561.09;;;10.82;60.49
72395;BME280;60384;48.152;11.614;2023-04-02T14:39:43;95555.91;;;10.77;61.21
72395;BME280;60384;48.152;11.614;2023-04-02T14:42:50;95555.75;;;10.73;60.37
72395;BME280;60384;48.152;11.614;2023-04-02T14:45:55;95549.78;;;10.76;60.02
72395;BME280;60384;48.152;11.614;2023-04-02T14:48:58;95558.72;;;10.81;59.89
72395;BME280;60384;48.152;11.614;2023-04-02T14:52:04;95552.28;;;10.82;60.54
72395;BME280;60384;48.152;11.614;2023-04-02T14:55:08;95562.81;;;10.78;59.79
72395;BME280;60384;48.152;11.614;2023-04-02T14:58:15;95564.25;;;10.75;60.38
72395;BME280;60384;48.152;11.614;2023-04-02T15:01:20;95565.03;;;10.76;60.04
72395;BME280;60384;48.152;11.614;2023-04-02T15:04:24;95563.28;;;10.80;60.64
72395;BME280;60384;48.152;11.614;2023-04-02T15:07:30;95564.38;;;10.79;60.78
72395;BME280;60384;48.152;11.614;2023-04-02T15:10:34;95566.28;;;10.78;60.51
72395;BME280;60384;48.152;11.614;2023-04-02T15:13:37;95578.66;;;10.83;60.14
72395;BME280;60384;48.152;11.614;2023-04-02T15:16:39;95581.16;;;10.88;60.68
72395;BME280;60384;48.152;11.614;2023-04-02T15:19:41;95577.09;;;10.91;60.19
72395;BME280;60384;48.152;11.614;2023-04-02T15:22:47;95583.53;;;10.90;60.42
72395;BME280;60384;48.152;11.614;2023-04-02T15:25:53;95579.63;;;10.87;60.16
72395;BME280;60384;48.152;11.614;2023-04-02T15:28:59;95583.56;;;10.81;60.79
72395;BME280;60384;48.152;11.614;2023-04-02T15:32:05;95589.41;;;10.74;60.21
72395;BME280;60384;48.152;11.614;2023-04-02T15:35:16;95585.63;;;10.67;60.59
72395;BME280;60384;48.152;11.614;2023-04-02T15:38:21;95596.97;;;10.64;60.45
72395;BME280;60384;48.152;11.614;2023-04-02T15:41:25;95593.69;;;10.58;60.22
72395;BME280;60384;48.152;11.614;2023-04-02T15:44:31;95599.03;;;10.50;61.19
72395;BME280;60384;48.152;11.614;2023-04-02T15:47:35;95600.28;;;10.44;60.86
72395;BME280;60384;48.152;11.614;2023-04-02T15:50:43;95611.44;;;10.37;61.45
72395;BME280;60384;48.152;11.614;2023-04-02T15:53:51;95614.28;;;10.32;61.04
72395;BME280;60384;48.152;11.614;2023-04-02T15:57:04;95617.44;;;10.25;61.18
72395;BME280;60384;48.152;11.614;2023-04-02T16:00:19;95619.66;;;10.23;61.18
72395;BME280;60384;48.152;11.614;2023-04-02T16:03:32;95621.06;;;10.21;61.35
72395;BME280;60384;48.152;11.614;2023-04-02T16:06:42;95632.94;;;10.15;60.73
72395;BME280;60384;48.152;11.614;2023-04-02T16:09:58;95640.03;;;10.11;61.32
72395;BME280;60384;48.152;11.614;2023-04-02T16:13:09;95646.63;;;10.05;61.50
72395;BME280;60384;48.152;11.614;2023-04-02T16:16:14;95652.09;;;10.00;61.24
72395;BME280;60384;48.152;11.614;2023-04-02T16:19:19;95653.50;;;9.88;61.60
72395;BME280;60384;48.152;11.614;2023-04-02T16:22:23;95656.78;;;9.77;61.47
72395;BME280;60384;48.152;11.614;2023-04-02T16:25:28;95665.38;;;9.65;61.57
72395;BME280;60384;48.152;11.614;2023-04-02T16:28:32;95677.72;;;9.52;61.54
72395;BME280;60384;48.152;11.614;2023-04-02T16:31:37;95678.66;;;9.39;61.85
72395;BME280;60384;48.152;11.614;2023-04-02T16:34:43;95676.56;;;9.28;61.71
72395;BME280;60384;48.152;11.614;2023-04-02T16:37:48;95678.69;;;9.17;62.05
72395;BME280;60384;48.152;11.614;2023-04-02T16:40:55;95687.59;;;9.12;62.16
72395;BME280;60384;48.152;11.614;2023-04-02T16:44:01;95699.69;;;9.10;62.15